createdAt,value
2018-09-22T00:01:34.376Z,11.80
2018-09-22T00:04:03.372Z,11.70
2018-09-22T00:06:32.216Z,11.70
2018-09-22T00:09:00.994Z,11.60
2018-09-22T00:11:30.243Z,11.60
2018-09-22T00:13:59.016Z,11.60
2018-09-22T00:16:27.901Z,11.50
2018-09-22T00:18:56.823Z,11.50
2018-09-22T00:21:25.708Z,11.50
2018-09-22T00:23:54.469Z,11.50
2018-09-22T00:26:23.541Z,11.50
2018-09-22T00:28:52.472Z,11.50
2018-09-22T00:31:21.286Z,11.50
2018-09-22T00:33:50.231Z,11.50
2018-09-22T00:36:19.185Z,11.50
2018-09-22T00:38:49.061Z,11.50
2018-09-22T00:41:17.869Z,11.40
2018-09-22T00:43:46.769Z,11.40
2018-09-22T00:46:15.497Z,11.40
2018-09-22T00:48:44.528Z,11.30
2018-09-22T00:51:14.928Z,11.40
2018-09-22T00:53:44.912Z,11.30
2018-09-22T00:56:13.854Z,11.30
2018-09-22T00:58:43.243Z,11.30
2018-09-22T01:01:12.049Z,11.30
2018-09-22T01:03:40.986Z,11.30
2018-09-22T01:06:09.779Z,11.30
2018-09-22T01:08:38.900Z,11.40
2018-09-22T01:11:07.779Z,11.40
2018-09-22T01:13:36.734Z,11.40
2018-09-22T01:16:05.861Z,11.40
2018-09-22T01:18:35.357Z,11.40
2018-09-22T01:21:04.170Z,11.40
2018-09-22T01:23:32.936Z,11.40
2018-09-22T01:26:01.813Z,11.40
2018-09-22T01:28:31.325Z,11.50
2018-09-22T01:31:00.438Z,11.50
2018-09-22T01:33:29.325Z,11.50
2018-09-22T01:35:58.917Z,11.60
2018-09-22T01:38:27.924Z,11.60
2018-09-22T01:40:57.393Z,11.60
2018-09-22T01:43:26.267Z,11.50
2018-09-22T01:45:55.025Z,11.50
2018-09-22T01:48:23.952Z,11.50
2018-09-22T01:50:53.348Z,11.50
2018-09-22T01:53:22.157Z,11.50
2018-09-22T01:55:50.950Z,11.50
2018-09-22T01:58:19.908Z,11.50
2018-09-22T02:00:49.249Z,11.50
2018-09-22T02:03:18.309Z,11.50
2018-09-22T02:05:47.221Z,11.50
2018-09-22T02:08:15.916Z,11.40
2018-09-22T02:10:44.773Z,11.40
2018-09-22T02:13:13.572Z,11.50
2018-09-22T02:15:42.584Z,11.50
2018-09-22T02:18:11.406Z,11.50
2018-09-22T02:20:41.051Z,11.50
2018-09-22T02:23:09.836Z,11.50
2018-09-22T02:25:38.633Z,11.50
2018-09-22T02:28:07.613Z,11.40
2018-09-22T02:30:36.483Z,11.40
2018-09-22T02:33:05.291Z,11.40
2018-09-22T02:35:34.112Z,11.30
2018-09-22T02:38:03.745Z,11.30
2018-09-22T02:40:32.735Z,11.30
2018-09-22T02:43:01.775Z,11.30
2018-09-22T02:45:30.560Z,11.30
2018-09-22T02:47:59.560Z,11.20
2018-09-22T02:50:28.694Z,11.20
2018-09-22T02:52:58.077Z,11.10
2018-09-22T02:55:26.834Z,11.10
2018-09-22T02:57:55.676Z,11.10
2018-09-22T03:00:25.176Z,11.10
2018-09-22T03:02:54.018Z,11.10
2018-09-22T03:05:22.908Z,11.00
2018-09-22T03:07:53.498Z,11.00
2018-09-22T03:10:22.336Z,10.90
2018-09-22T03:12:51.864Z,10.80
2018-09-22T03:15:20.789Z,10.70
2018-09-22T03:17:49.472Z,10.70
2018-09-22T03:20:18.417Z,10.60
2018-09-22T03:22:47.301Z,10.50
2018-09-22T03:25:16.093Z,10.40
2018-09-22T03:27:45.169Z,10.30
2018-09-22T03:30:14.046Z,10.30
2018-09-22T03:32:42.908Z,10.20
2018-09-22T03:35:11.823Z,10.10
2018-09-22T03:37:41.121Z,10.00
2018-09-22T03:40:10.277Z,9.90
2018-09-22T03:42:39.772Z,9.90
2018-09-22T03:45:08.621Z,9.80
2018-09-22T03:47:38.108Z,9.80
2018-09-22T03:50:06.939Z,9.80
2018-09-22T03:52:36.463Z,9.80
2018-09-22T03:55:05.377Z,9.70
2018-09-22T03:57:34.988Z,9.70
2018-09-22T04:00:04.116Z,9.80
2018-09-22T04:02:32.889Z,9.80
2018-09-22T04:05:01.687Z,9.90
2018-09-22T04:07:30.467Z,9.90
2018-09-22T04:10:00.049Z,10.00
2018-09-22T04:12:29.263Z,10.00
2018-09-22T04:14:58.094Z,10.00
2018-09-22T04:17:26.926Z,10.00
2018-09-22T04:19:55.940Z,10.00
2018-09-22T04:22:25.416Z,10.00
2018-09-22T04:24:54.302Z,10.00
2018-09-22T04:27:23.747Z,9.90
2018-09-22T04:29:52.708Z,10.00
2018-09-22T04:32:22.207Z,10.00
2018-09-22T04:34:51.139Z,10.10
2018-09-22T04:37:20.629Z,10.20
2018-09-22T04:39:49.709Z,10.30
2018-09-22T04:42:20.089Z,10.40
2018-09-22T04:44:49.180Z,10.50
2018-09-22T04:47:18.107Z,10.50
2018-09-22T04:49:47.432Z,10.60
2018-09-22T04:52:16.377Z,10.70
2018-09-22T04:54:45.447Z,10.70
2018-09-22T04:57:20.077Z,10.70
2018-09-22T05:00:10.733Z,10.70
2018-09-22T05:02:43.660Z,10.70
2018-09-22T05:05:14.542Z,10.60
2018-09-22T05:07:43.423Z,10.60
2018-09-22T05:10:12.553Z,10.50
2018-09-22T05:12:41.523Z,10.40
2018-09-22T05:15:11.353Z,10.30
2018-09-22T05:17:40.408Z,10.20
2018-09-22T05:20:09.275Z,10.00
2018-09-22T05:22:38.109Z,9.90
2018-09-22T05:25:07.021Z,9.80
2018-09-22T05:27:47.889Z,9.60
2018-09-22T05:30:16.864Z,9.60
2018-09-22T05:32:45.694Z,9.50
2018-09-22T05:35:15.133Z,9.40
2018-09-22T05:37:43.927Z,9.30
2018-09-22T05:40:12.752Z,9.30
2018-09-22T05:42:41.538Z,9.20
2018-09-22T05:45:10.588Z,9.30
2018-09-22T05:47:44.790Z,9.40
2018-09-22T05:50:13.778Z,9.40
2018-09-22T05:52:43.251Z,9.50
2018-09-22T05:55:12.425Z,9.60
2018-09-22T05:57:41.637Z,9.80
2018-09-22T06:00:10.176Z,9.90
2018-09-22T06:02:39.670Z,10.10
2018-09-22T06:05:09.421Z,10.20
2018-09-22T06:07:38.457Z,10.30
2018-09-22T06:10:07.701Z,10.40
2018-09-22T06:12:36.597Z,10.40
2018-09-22T06:15:06.037Z,10.50
2018-09-22T06:17:35.073Z,10.50
2018-09-22T06:20:04.062Z,10.50
2018-09-22T06:22:32.903Z,10.50
2018-09-22T06:25:01.744Z,10.70
2018-09-22T06:27:30.577Z,10.80
2018-09-22T06:29:59.426Z,11.00
2018-09-22T06:32:28.197Z,11.30
2018-09-22T06:34:57.572Z,11.50
2018-09-22T06:37:26.594Z,11.70
2018-09-22T06:39:55.443Z,11.80
2018-09-22T06:42:24.470Z,12.00
2018-09-22T06:44:53.854Z,12.10
2018-09-22T06:47:23.069Z,12.30
2018-09-22T06:49:51.985Z,12.40
2018-09-22T06:52:20.922Z,12.60
2018-09-22T06:54:49.919Z,12.60
2018-09-22T06:57:19.030Z,12.60
2018-09-22T06:59:47.948Z,12.60
2018-09-22T07:02:16.854Z,12.70
2018-09-22T07:04:45.727Z,12.70
2018-09-22T07:07:14.637Z,13.00
2018-09-22T07:09:43.478Z,13.20
2018-09-22T07:12:12.412Z,13.40
2018-09-22T07:14:41.405Z,13.50
2018-09-22T07:17:10.306Z,13.50
2018-09-22T07:19:39.836Z,13.60
2018-09-22T07:22:14.212Z,13.70
2018-09-22T07:24:43.097Z,13.80
2018-09-22T07:27:11.979Z,14.10
2018-09-22T07:29:40.917Z,14.10
2018-09-22T07:32:09.764Z,14.10
2018-09-22T07:34:38.620Z,14.20
2018-09-22T07:37:07.562Z,14.20
2018-09-22T07:39:37.009Z,14.40
2018-09-22T07:42:05.982Z,14.40
2018-09-22T07:44:34.946Z,14.60
2018-09-22T07:47:03.819Z,14.80
2018-09-22T07:49:32.801Z,14.70
2018-09-22T07:52:01.911Z,14.90
2018-09-22T07:54:30.828Z,15.20
2018-09-22T07:56:59.666Z,15.00
2018-09-22T07:59:28.644Z,15.00
2018-09-22T08:01:57.579Z,15.00
2018-09-22T08:04:26.379Z,14.60
2018-09-22T08:06:55.410Z,15.00
2018-09-22T08:09:24.519Z,15.40
2018-09-22T08:11:53.653Z,17.00
2018-09-22T08:14:22.524Z,18.30
2018-09-22T08:16:51.380Z,17.40
2018-09-22T08:19:20.400Z,16.40
2018-09-22T08:21:49.928Z,16.80
2018-09-22T08:24:18.885Z,16.70
2018-09-22T08:26:47.850Z,16.90
2018-09-22T08:29:16.675Z,17.30
2018-09-22T08:31:45.621Z,17.80
2018-09-22T08:34:14.549Z,18.70
2018-09-22T08:36:43.402Z,18.40
2018-09-22T08:39:12.971Z,17.80
2018-09-22T08:41:42.506Z,19.10
2018-09-22T08:44:11.373Z,20.00
2018-09-22T08:46:40.848Z,20.80
2018-09-22T08:49:10.365Z,20.60
2018-09-22T08:51:39.222Z,19.80
2018-09-22T08:54:08.269Z,18.90
2018-09-22T08:56:37.077Z,18.00
2018-09-22T08:59:06.111Z,18.50
2018-09-22T09:01:35.190Z,18.10
2018-09-22T09:04:04.498Z,18.60
2018-09-22T09:06:33.533Z,19.20
2018-09-22T09:09:02.358Z,19.70
2018-09-22T09:11:31.419Z,19.60
2018-09-22T09:14:00.248Z,19.10
2018-09-22T09:16:29.791Z,18.50
2018-09-22T09:18:58.604Z,18.80
2018-09-22T09:21:27.392Z,19.30
2018-09-22T09:23:56.273Z,19.20
2018-09-22T09:26:25.308Z,19.60
2018-09-22T09:28:54.946Z,18.50
2018-09-22T09:31:23.737Z,18.70
2018-09-22T09:33:52.714Z,19.50
2018-09-22T09:36:21.589Z,18.90
2018-09-22T09:38:57.043Z,18.70
2018-09-22T09:41:25.894Z,18.90
2018-09-22T09:43:54.779Z,19.80
2018-09-22T09:46:24.077Z,20.30
2018-09-22T09:48:52.912Z,20.00
2018-09-22T09:51:21.851Z,20.10
2018-09-22T09:53:50.667Z,20.80
2018-09-22T09:56:20.556Z,20.00
2018-09-22T09:58:49.431Z,20.00
2018-09-22T10:01:18.332Z,20.30
2018-09-22T10:03:47.112Z,21.00
2018-09-22T10:06:16.135Z,20.30
2018-09-22T10:08:45.087Z,19.90
2018-09-22T10:11:14.593Z,19.30
2018-09-22T10:13:43.487Z,20.20
2018-09-22T10:16:12.283Z,21.00
2018-09-22T10:18:41.059Z,21.80
2018-09-22T10:21:09.876Z,21.20
2018-09-22T10:23:38.578Z,21.40
2018-09-22T10:26:08.049Z,22.00
2018-09-22T10:28:37.246Z,21.70
2018-09-22T10:31:06.354Z,22.30
2018-09-22T10:33:35.125Z,22.80
2018-09-22T10:36:05.000Z,22.90
2018-09-22T10:38:33.730Z,22.90
2018-09-22T10:41:02.620Z,22.40
2018-09-22T10:43:31.500Z,21.90
2018-09-22T10:46:00.307Z,22.70
2018-09-22T10:48:29.700Z,22.30
2018-09-22T10:50:58.573Z,22.90
2018-09-22T10:53:27.685Z,23.20
2018-09-22T10:55:56.635Z,24.00
2018-09-22T10:58:25.600Z,25.00
2018-09-22T11:00:55.065Z,24.80
2018-09-22T11:03:24.527Z,26.00
2018-09-22T11:05:53.594Z,26.30
2018-09-22T11:08:22.556Z,24.90
2018-09-22T11:10:52.129Z,24.00
2018-09-22T11:13:20.957Z,22.40
2018-09-22T11:15:50.099Z,22.50
2018-09-22T11:18:18.996Z,20.70
2018-09-22T11:20:48.011Z,21.30
2018-09-22T11:23:16.755Z,23.20
2018-09-22T11:25:58.552Z,24.30
2018-09-22T11:28:27.316Z,24.40
2018-09-22T11:30:56.580Z,25.80
2018-09-22T11:33:25.808Z,26.50
2018-09-22T11:35:54.720Z,25.90
2018-09-22T11:38:23.669Z,25.70
2018-09-22T11:40:52.545Z,25.60
2018-09-22T11:43:21.445Z,24.30
2018-09-22T11:45:50.743Z,23.70
2018-09-22T11:48:19.596Z,22.70
2018-09-22T11:50:48.872Z,22.70
2018-09-22T11:53:18.738Z,22.10
2018-09-22T11:55:47.544Z,21.70
2018-09-22T11:58:16.366Z,21.90
2018-09-22T12:00:45.398Z,23.40
2018-09-22T12:03:14.477Z,24.20
2018-09-22T12:05:43.416Z,23.50
2018-09-22T12:08:12.366Z,24.00
2018-09-22T12:10:41.286Z,24.20
2018-09-22T12:13:10.296Z,23.50
2018-09-22T12:15:39.816Z,23.60
2018-09-22T12:18:08.952Z,22.70
2018-09-22T12:20:37.915Z,23.00
2018-09-22T12:23:06.699Z,23.50
2018-09-22T12:25:35.528Z,23.40
2018-09-22T12:28:04.451Z,24.10
2018-09-22T12:30:33.896Z,24.80
2018-09-22T12:33:03.257Z,24.40
2018-09-22T12:35:32.282Z,23.20
2018-09-22T12:38:01.752Z,23.40
2018-09-22T12:40:31.098Z,23.80
2018-09-22T12:42:59.919Z,24.40
2018-09-22T12:45:28.796Z,25.40
2018-09-22T12:47:58.308Z,24.70
2018-09-22T12:50:27.767Z,24.50
2018-09-22T12:52:56.794Z,24.60
2018-09-22T12:55:26.278Z,24.10
2018-09-22T12:57:55.058Z,23.40
2018-09-22T13:00:23.870Z,23.10
2018-09-22T13:02:52.626Z,22.70
2018-09-22T13:05:21.471Z,23.30
2018-09-22T13:07:50.840Z,23.10
2018-09-22T13:10:19.628Z,22.40
2018-09-22T13:12:48.968Z,22.90
2018-09-22T13:15:17.836Z,23.60
2018-09-22T13:17:47.469Z,23.50
2018-09-22T13:20:16.387Z,23.80
2018-09-22T13:22:45.448Z,23.90
2018-09-22T13:25:14.291Z,24.10
2018-09-22T13:27:43.299Z,24.70
2018-09-22T13:30:12.162Z,25.00
2018-09-22T13:32:40.942Z,25.20
2018-09-22T13:35:10.001Z,25.00
2018-09-22T13:37:38.756Z,24.00
2018-09-22T13:40:07.630Z,24.50
2018-09-22T13:42:41.590Z,23.50
2018-09-22T13:45:11.481Z,23.60
2018-09-22T13:47:40.256Z,22.60
2018-09-22T13:50:09.109Z,23.00
2018-09-22T13:52:38.448Z,22.70
2018-09-22T13:55:07.754Z,22.80
2018-09-22T13:57:36.493Z,23.10
2018-09-22T14:00:05.348Z,22.40
2018-09-22T14:02:34.371Z,22.50
2018-09-22T14:05:03.560Z,22.30
2018-09-22T14:07:33.068Z,22.50
2018-09-22T14:10:02.140Z,23.00
2018-09-22T14:12:31.028Z,21.90
2018-09-22T14:15:00.975Z,21.80
2018-09-22T14:17:29.826Z,21.50
2018-09-22T14:19:58.629Z,22.00
2018-09-22T14:22:27.388Z,21.40
2018-09-22T14:24:56.291Z,21.40
2018-09-22T14:27:25.827Z,21.20
2018-09-22T14:29:54.867Z,21.20
2018-09-22T14:32:23.935Z,21.20
2018-09-22T14:34:53.416Z,20.50
2018-09-22T14:37:22.325Z,20.20
2018-09-22T14:39:51.127Z,20.10
2018-09-22T14:42:26.945Z,19.60
2018-09-22T14:44:55.765Z,19.60
2018-09-22T14:47:24.563Z,19.80
2018-09-22T14:49:53.497Z,20.10
2018-09-22T14:52:22.450Z,20.20
2018-09-22T14:54:51.306Z,20.30
2018-09-22T14:57:20.219Z,20.50
2018-09-22T14:59:49.141Z,19.80
2018-09-22T15:02:17.933Z,19.30
2018-09-22T15:04:46.950Z,19.10
2018-09-22T15:07:15.744Z,18.90
2018-09-22T15:09:44.575Z,18.80
2018-09-22T15:12:13.653Z,18.90
2018-09-22T15:14:42.808Z,18.80
2018-09-22T15:17:21.013Z,18.80
2018-09-22T15:19:49.873Z,19.20
2018-09-22T15:22:18.713Z,18.90
2018-09-22T15:24:48.137Z,18.80
2018-09-22T15:27:16.901Z,18.50
2018-09-22T15:29:45.932Z,18.40
2018-09-22T15:32:14.880Z,18.40
2018-09-22T15:34:43.738Z,18.50
2018-09-22T15:37:12.696Z,18.40
2018-09-22T15:39:41.533Z,18.30
2018-09-22T15:42:10.368Z,18.50
2018-09-22T15:44:47.162Z,18.40
2018-09-22T15:47:16.035Z,18.40
2018-09-22T15:49:45.711Z,18.20
2018-09-22T15:52:14.636Z,18.20
2018-09-22T15:54:43.584Z,18.00
2018-09-22T15:57:13.382Z,17.90
2018-09-22T15:59:42.470Z,17.80
2018-09-22T16:02:11.833Z,17.60
2018-09-22T16:04:41.017Z,17.50
2018-09-22T16:07:09.862Z,17.30
2018-09-22T16:09:39.452Z,17.30
2018-09-22T16:12:08.569Z,17.30
2018-09-22T16:14:37.569Z,17.30
2018-09-22T16:17:07.233Z,17.30
2018-09-22T16:19:35.992Z,17.40
2018-09-22T16:22:05.664Z,17.50
2018-09-22T16:24:34.506Z,17.50
2018-09-22T16:27:03.993Z,17.40
2018-09-22T16:29:32.896Z,17.30
2018-09-22T16:32:01.631Z,17.10
2018-09-22T16:34:30.583Z,17.00
2018-09-22T16:37:00.443Z,16.90
2018-09-22T16:39:29.372Z,16.70
2018-09-22T16:41:58.337Z,16.70
2018-09-22T16:44:27.920Z,16.60
2018-09-22T16:46:56.829Z,16.60
2018-09-22T16:49:25.823Z,16.40
2018-09-22T16:51:54.686Z,16.30
2018-09-22T16:54:23.606Z,16.30
2018-09-22T16:56:52.628Z,16.20
2018-09-22T16:59:21.437Z,16.10
2018-09-22T17:01:50.370Z,15.90
2018-09-22T17:04:19.445Z,15.50
2018-09-22T17:06:48.313Z,15.00
2018-09-22T17:09:18.971Z,14.60
2018-09-22T17:11:51.874Z,14.20
2018-09-22T17:14:31.773Z,13.80
2018-09-22T17:17:00.829Z,13.50
2018-09-22T17:19:29.741Z,13.20
2018-09-22T17:21:58.764Z,13.00
2018-09-22T17:24:27.935Z,12.80
2018-09-22T17:26:56.739Z,12.50
2018-09-22T17:29:25.508Z,12.30
2018-09-22T17:31:55.436Z,12.20
2018-09-22T17:34:24.860Z,12.10
2018-09-22T17:36:53.985Z,12.10
2018-09-22T17:39:22.893Z,12.00
2018-09-22T17:41:53.065Z,12.00
2018-09-22T17:44:21.948Z,12.00
2018-09-22T17:46:50.875Z,12.00
2018-09-22T17:49:19.744Z,12.00
2018-09-22T17:51:48.663Z,12.00
2018-09-22T17:54:17.639Z,12.00
2018-09-22T17:56:46.541Z,12.00
2018-09-22T17:59:15.495Z,12.10
2018-09-22T18:01:44.520Z,12.00
2018-09-22T18:04:13.569Z,12.10
2018-09-22T18:06:43.677Z,12.10
2018-09-22T18:09:22.498Z,12.10
2018-09-22T18:11:51.502Z,12.10
2018-09-22T18:14:20.311Z,12.10
2018-09-22T18:16:50.180Z,12.00
2018-09-22T18:19:18.878Z,11.90
2018-09-22T18:21:47.802Z,11.80
2018-09-22T18:24:16.837Z,11.80
2018-09-22T18:26:45.802Z,11.80
2018-09-22T18:29:14.624Z,11.70
2018-09-22T18:31:43.705Z,11.60
2018-09-22T18:34:12.624Z,11.60
2018-09-22T18:36:41.572Z,11.60
2018-09-22T18:39:11.110Z,11.70
2018-09-22T18:41:40.032Z,11.70
2018-09-22T18:44:08.962Z,11.80
2018-09-22T18:46:37.865Z,11.80
2018-09-22T18:49:07.003Z,11.80
2018-09-22T18:51:35.910Z,11.90
2018-09-22T18:54:04.869Z,11.90
2018-09-22T18:56:33.878Z,11.90
2018-09-22T18:59:02.960Z,11.90
2018-09-22T19:01:32.082Z,11.90
2018-09-22T19:04:01.423Z,11.90
2018-09-22T19:06:30.331Z,11.80
2018-09-22T19:08:59.290Z,11.80
2018-09-22T19:11:28.140Z,11.70
2018-09-22T19:14:03.519Z,11.60
2018-09-22T19:16:35.903Z,11.50
2018-09-22T19:19:10.857Z,11.50
2018-09-22T19:21:45.062Z,11.40
2018-09-22T19:24:22.165Z,11.30
2018-09-22T19:26:55.377Z,11.20
2018-09-22T19:29:36.116Z,11.10
2018-09-22T19:32:21.607Z,11.10
2018-09-22T19:35:02.248Z,11.10
2018-09-22T19:37:36.842Z,11.10
2018-09-22T19:40:23.728Z,11.00
2018-09-22T19:42:59.382Z,11.10
2018-09-22T19:45:47.586Z,11.10
2018-09-22T19:48:24.419Z,11.00
2018-09-22T19:51:00.225Z,11.00
2018-09-22T19:53:29.171Z,11.10
2018-09-22T19:55:58.082Z,11.10
2018-09-22T19:58:27.020Z,11.20
2018-09-22T20:00:56.226Z,11.20
2018-09-22T20:03:25.383Z,11.20
2018-09-22T20:05:54.937Z,11.30
2018-09-22T20:08:23.976Z,11.30
2018-09-22T20:10:53.013Z,11.30
2018-09-22T20:13:22.425Z,11.20
2018-09-22T20:15:51.380Z,11.20
2018-09-22T20:18:20.377Z,11.20
2018-09-22T20:20:49.373Z,11.30
2018-09-22T20:23:18.375Z,11.30
2018-09-22T20:25:47.207Z,11.40
2018-09-22T20:28:16.116Z,11.40
2018-09-22T20:30:45.054Z,11.50
2018-09-22T20:33:14.308Z,11.60
2018-09-22T20:35:43.520Z,11.60
2018-09-22T20:38:12.316Z,11.50
2018-09-22T20:40:41.979Z,11.40
2018-09-22T20:43:10.835Z,11.20
2018-09-22T20:45:39.713Z,11.10
2018-09-22T20:48:08.818Z,11.10
2018-09-22T20:50:37.882Z,11.10
2018-09-22T20:53:06.994Z,11.20
2018-09-22T20:55:35.955Z,11.10
2018-09-22T20:58:05.796Z,11.20
2018-09-22T21:00:34.748Z,11.20
2018-09-22T21:03:03.918Z,11.30
2018-09-22T21:05:33.246Z,11.30
2018-09-22T21:08:02.119Z,11.40
2018-09-22T21:10:30.964Z,11.40
2018-09-22T21:12:59.911Z,11.30
2018-09-22T21:15:28.929Z,11.30
2018-09-22T21:17:58.521Z,11.30
2018-09-22T21:20:27.303Z,11.30
2018-09-22T21:22:56.137Z,11.30
2018-09-22T21:25:25.109Z,11.30
2018-09-22T21:27:53.945Z,11.20
2018-09-22T21:30:22.765Z,11.20
2018-09-22T21:32:51.740Z,11.20
2018-09-22T21:35:20.683Z,11.20
2018-09-22T21:37:49.532Z,11.20
2018-09-22T21:40:18.480Z,11.10
2018-09-22T21:42:47.654Z,11.10
2018-09-22T21:45:16.526Z,11.20
2018-09-22T21:47:45.365Z,11.20
2018-09-22T21:50:14.373Z,11.30
2018-09-22T21:52:43.348Z,11.30
2018-09-22T21:55:12.165Z,11.30
2018-09-22T21:57:41.058Z,11.30
2018-09-22T22:00:09.909Z,11.30
2018-09-22T22:02:39.518Z,11.30
2018-09-22T22:05:08.468Z,11.40
2018-09-22T22:07:37.949Z,11.30
2018-09-22T22:10:06.898Z,11.40
2018-09-22T22:12:35.704Z,11.30
2018-09-22T22:15:04.718Z,11.40
2018-09-22T22:17:33.461Z,11.40
2018-09-22T22:20:02.352Z,11.40
2018-09-22T22:22:31.276Z,11.40
2018-09-22T22:25:00.713Z,11.40
2018-09-22T22:27:29.605Z,11.40
2018-09-22T22:29:59.184Z,11.30
2018-09-22T22:32:28.000Z,11.30
2018-09-22T22:34:56.847Z,11.30
2018-09-22T22:37:25.699Z,11.30
2018-09-22T22:39:54.546Z,11.30
2018-09-22T22:42:24.202Z,11.20
2018-09-22T22:44:53.090Z,11.20
2018-09-22T22:47:21.854Z,11.20
2018-09-22T22:49:50.796Z,11.20
2018-09-22T22:52:20.225Z,11.20
2018-09-22T22:54:48.985Z,11.20
2018-09-22T22:57:17.862Z,11.10
2018-09-22T22:59:46.844Z,11.10
2018-09-22T23:02:15.649Z,11.00
2018-09-22T23:04:44.505Z,11.10
2018-09-22T23:07:13.501Z,11.10
2018-09-22T23:09:42.344Z,11.00
2018-09-22T23:12:11.177Z,11.00
2018-09-22T23:14:40.269Z,11.00
2018-09-22T23:17:09.109Z,11.00
2018-09-22T23:19:38.004Z,11.00
2018-09-22T23:22:06.913Z,11.00
2018-09-22T23:24:35.794Z,11.10
2018-09-22T23:27:04.657Z,11.10
2018-09-22T23:29:33.583Z,11.10
2018-09-22T23:32:02.433Z,11.00
2018-09-22T23:34:32.008Z,11.00
2018-09-22T23:37:00.928Z,11.00
2018-09-22T23:39:29.737Z,11.00
2018-09-22T23:41:58.711Z,11.00
2018-09-22T23:44:27.640Z,11.10
2018-09-22T23:46:57.133Z,11.00
2018-09-22T23:49:26.049Z,11.00
2018-09-22T23:51:54.827Z,11.00
2018-09-22T23:54:23.847Z,11.10
2018-09-22T23:56:52.939Z,11.20
2018-09-22T23:59:21.892Z,11.20
